This is the latest recevied weather packets stored in our database for station/object DL4ABR-6. If no packets are shown the sender has not sent any weather packets the latest 10 day(s).
| Time | Temp. | Humidity | Pressure | Rain* | Wind** | Luminosity | Snow |
|---|---|---|---|---|---|---|---|
| 1777698385 | 6.67° C | 93% | 1017.7 hPa | 0 mm | - | - | - |
| 1777697495 | 6.11° C | 94% | 1017.6 hPa | 0 mm | - | - | - |
| 1777696600 | 5.56° C | 94% | 1017.4 hPa | 0 mm | - | - | - |
| 1777695875 | 5.56° C | 94% | 1017.7 hPa | 0 mm | - | - | - |
| 1777695010 | 5.56° C | 93% | 1017.6 hPa | 0 mm | - | - | - |
| 1777694284 | 5.56° C | 93% | 1017.8 hPa | 0 mm | - | - | - |
| 1777693530 | 5.56° C | 93% | 1017.8 hPa | 0 mm | - | - | - |
| 1777692784 | 5.56° C | 93% | 1017.8 hPa | 0 mm | - | - | - |
| 1777691900 | 5.56° C | 92% | 1017.8 hPa | 0 mm | - | - | - |
| 1777691130 | 5.56° C | 92% | 1018.1 hPa | 0 mm | - | - | - |
| 1777690405 | 6.11° C | 92% | 1018.1 hPa | 0 mm | - | - | - |
| 1777689550 | 6.11° C | 91% | 1018.4 hPa | 0 mm | - | - | - |
| 1777688655 | 6.11° C | 91% | 1018.1 hPa | 0 mm | - | - | - |
| 1777674045 | 10.56° C | 73% | 1019.9 hPa | 0 mm | - | - | - |
| 1777670750 | 12.22° C | 67% | 1020 hPa | 0 mm | - | - | - |
| 1777669945 | 12.78° C | 65% | 1020 hPa | 0 mm | - | - | - |
| 1777669220 | 13.89° C | 61% | 1020 hPa | 0 mm | - | - | - |
| 1777668485 | 15° C | 57% | 1020.1 hPa | 0 mm | - | - | - |
| 1777667633 | 15° C | 54% | 1020.4 hPa | 0 mm | - | - | - |
| 1777666813 | 15.56° C | 54% | 1020.4 hPa | 0 mm | - | - | - |
| 1777666035 | 14.44° C | 59% | 1020.3 hPa | 0 mm | - | - | - |
| 1777660435 | 18.89° C | 50% | 1020.4 hPa | 0 mm | - | - | - |
| 1777659625 | 19.44° C | 46% | 1020.4 hPa | 0 mm | - | - | - |
| 1777656450 | 21.67° C | 40% | 1020.5 hPa | 0 mm | - | - | - |
| 1777655550 | 22.22° C | 40% | 1020.6 hPa | 0 mm | - | - | - |
* Rain since midnight (hover to see other rain measurements)
** Current wind speed in m/s (hover to see current wind gust speed)